sensor_id;sensor_type;location;lat;lon;timestamp;pressure;altitude;pressure_sealevel;temperature;humidity
48404;BME280;34202;52.536;6.042;2022-11-24T00:04:24;100258.31;;;6.96;100.00
48404;BME280;34202;52.536;6.042;2022-11-24T00:09:25;100255.70;;;6.95;100.00
48404;BME280;34202;52.536;6.042;2022-11-24T00:14:25;100262.27;;;6.94;100.00
48404;BME280;34202;52.536;6.042;2022-11-24T00:19:26;100261.06;;;6.95;100.00
48404;BME280;34202;52.536;6.042;2022-11-24T00:24:26;100266.10;;;6.96;100.00
48404;BME280;34202;52.536;6.042;2022-11-24T00:29:27;100264.18;;;6.97;100.00
48404;BME280;34202;52.536;6.042;2022-11-24T00:34:27;100262.12;;;6.96;100.00
48404;BME280;34202;52.536;6.042;2022-11-24T00:39:27;100262.64;;;6.97;100.00
48404;BME280;34202;52.536;6.042;2022-11-24T00:44:27;100262.11;;;6.97;100.00
48404;BME280;34202;52.536;6.042;2022-11-24T00:49:28;100253.83;;;6.98;100.00
48404;BME280;34202;52.536;6.042;2022-11-24T00:54:28;100256.25;;;6.98;100.00
48404;BME280;34202;52.536;6.042;2022-11-24T00:59:28;100266.48;;;7.00;100.00
48404;BME280;34202;52.536;6.042;2022-11-24T01:04:31;100269.27;;;7.03;100.00
48404;BME280;34202;52.536;6.042;2022-11-24T01:09:31;100276.55;;;7.04;100.00
48404;BME280;34202;52.536;6.042;2022-11-24T01:14:32;100287.66;;;7.06;100.00
48404;BME280;34202;52.536;6.042;2022-11-24T01:19:32;100295.63;;;7.08;100.00
48404;BME280;34202;52.536;6.042;2022-11-24T01:24:32;100305.55;;;7.10;100.00
48404;BME280;34202;52.536;6.042;2022-11-24T01:29:33;100310.94;;;7.13;100.00
48404;BME280;34202;52.536;6.042;2022-11-24T01:34:33;100320.15;;;7.17;100.00
48404;BME280;34202;52.536;6.042;2022-11-24T01:39:33;100330.75;;;7.20;100.00
48404;BME280;34202;52.536;6.042;2022-11-24T01:44:34;100333.88;;;7.21;100.00
48404;BME280;34202;52.536;6.042;2022-11-24T01:49:44;100333.01;;;7.21;100.00
48404;BME280;34202;52.536;6.042;2022-11-24T01:54:51;100320.89;;;7.21;100.00
48404;BME280;34202;52.536;6.042;2022-11-24T01:59:56;100317.60;;;7.20;100.00
48404;BME280;34202;52.536;6.042;2022-11-24T02:05:02;100319.84;;;7.20;100.00
48404;BME280;34202;52.536;6.042;2022-11-24T02:10:10;100319.19;;;7.23;100.00
48404;BME280;34202;52.536;6.042;2022-11-24T02:15:15;100325.13;;;7.28;100.00
48404;BME280;34202;52.536;6.042;2022-11-24T02:20:16;100327.78;;;7.32;100.00
48404;BME280;34202;52.536;6.042;2022-11-24T02:25:43;100347.38;;;7.36;100.00
48404;BME280;34202;52.536;6.042;2022-11-24T02:30:45;100353.30;;;7.39;100.00
48404;BME280;34202;52.536;6.042;2022-11-24T02:35:46;100357.64;;;7.39;100.00
48404;BME280;34202;52.536;6.042;2022-11-24T02:40:47;100357.46;;;7.40;100.00
48404;BME280;34202;52.536;6.042;2022-11-24T02:45:48;100359.54;;;7.39;100.00
48404;BME280;34202;52.536;6.042;2022-11-24T02:50:48;100365.40;;;7.37;100.00
48404;BME280;34202;52.536;6.042;2022-11-24T02:55:49;100374.55;;;7.35;100.00
48404;BME280;34202;52.536;6.042;2022-11-24T03:00:49;100379.02;;;7.32;100.00
48404;BME280;34202;52.536;6.042;2022-11-24T03:05:53;100381.93;;;7.29;100.00
48404;BME280;34202;52.536;6.042;2022-11-24T03:10:53;100383.60;;;7.26;100.00
48404;BME280;34202;52.536;6.042;2022-11-24T03:15:53;100383.06;;;7.23;100.00
48404;BME280;34202;52.536;6.042;2022-11-24T03:20:58;100390.95;;;7.19;100.00
48404;BME280;34202;52.536;6.042;2022-11-24T03:26:13;100403.04;;;7.16;100.00
48404;BME280;34202;52.536;6.042;2022-11-24T03:31:14;100410.42;;;7.12;100.00
48404;BME280;34202;52.536;6.042;2022-11-24T03:36:15;100409.55;;;7.11;100.00
48404;BME280;34202;52.536;6.042;2022-11-24T03:41:15;100414.03;;;7.10;100.00
48404;BME280;34202;52.536;6.042;2022-11-24T03:46:16;100415.77;;;7.10;100.00
48404;BME280;34202;52.536;6.042;2022-11-24T03:51:16;100414.05;;;7.11;100.00
48404;BME280;34202;52.536;6.042;2022-11-24T03:56:16;100416.85;;;7.14;100.00
48404;BME280;34202;52.536;6.042;2022-11-24T04:01:17;100417.58;;;7.16;100.00
48404;BME280;34202;52.536;6.042;2022-11-24T04:06:17;100418.80;;;7.17;100.00
48404;BME280;34202;52.536;6.042;2022-11-24T04:11:17;100431.27;;;7.16;100.00
48404;BME280;34202;52.536;6.042;2022-11-24T04:16:36;100442.84;;;7.16;100.00
48404;BME280;34202;52.536;6.042;2022-11-24T04:21:37;100447.67;;;7.14;100.00
48404;BME280;34202;52.536;6.042;2022-11-24T04:26:37;100455.25;;;7.12;100.00
48404;BME280;34202;52.536;6.042;2022-11-24T04:31:37;100456.76;;;7.09;100.00
48404;BME280;34202;52.536;6.042;2022-11-24T04:36:38;100464.31;;;7.05;100.00
48404;BME280;34202;52.536;6.042;2022-11-24T04:41:40;100467.55;;;7.02;100.00
48404;BME280;34202;52.536;6.042;2022-11-24T04:46:40;100471.98;;;6.96;100.00
48404;BME280;34202;52.536;6.042;2022-11-24T04:51:40;100470.04;;;6.94;100.00
48404;BME280;34202;52.536;6.042;2022-11-24T04:56:41;100480.73;;;6.92;100.00
48404;BME280;34202;52.536;6.042;2022-11-24T05:01:44;100485.88;;;6.89;100.00
48404;BME280;34202;52.536;6.042;2022-11-24T05:06:44;100493.11;;;6.88;100.00
48404;BME280;34202;52.536;6.042;2022-11-24T05:11:45;100503.66;;;6.87;100.00
48404;BME280;34202;52.536;6.042;2022-11-24T05:16:45;100510.41;;;6.88;100.00
48404;BME280;34202;52.536;6.042;2022-11-24T05:21:45;100521.13;;;6.87;100.00
48404;BME280;34202;52.536;6.042;2022-11-24T05:26:46;100524.20;;;6.85;100.00
48404;BME280;34202;52.536;6.042;2022-11-24T05:31:46;100528.85;;;6.83;100.00
48404;BME280;34202;52.536;6.042;2022-11-24T05:36:46;100533.16;;;6.83;100.00
48404;BME280;34202;52.536;6.042;2022-11-24T05:41:53;100540.76;;;6.82;100.00
48404;BME280;34202;52.536;6.042;2022-11-24T05:46:53;100547.33;;;6.82;100.00
48404;BME280;34202;52.536;6.042;2022-11-24T05:51:53;100554.40;;;6.81;100.00
48404;BME280;34202;52.536;6.042;2022-11-24T05:56:55;100563.21;;;6.80;100.00
48404;BME280;34202;52.536;6.042;2022-11-24T06:01:55;100565.46;;;6.80;100.00
48404;BME280;34202;52.536;6.042;2022-11-24T06:06:55;100581.88;;;6.79;100.00
48404;BME280;34202;52.536;6.042;2022-11-24T06:11:56;100587.59;;;6.79;100.00
48404;BME280;34202;52.536;6.042;2022-11-24T06:16:56;100594.69;;;6.80;100.00
48404;BME280;34202;52.536;6.042;2022-11-24T06:21:56;100600.42;;;6.81;100.00
48404;BME280;34202;52.536;6.042;2022-11-24T06:26:57;100617.60;;;6.84;100.00
48404;BME280;34202;52.536;6.042;2022-11-24T06:31:57;100629.91;;;6.85;100.00
48404;BME280;34202;52.536;6.042;2022-11-24T06:36:57;100638.53;;;6.84;100.00
48404;BME280;34202;52.536;6.042;2022-11-24T06:41:58;100649.59;;;6.84;100.00
48404;BME280;34202;52.536;6.042;2022-11-24T06:46:58;100653.91;;;6.83;100.00
48404;BME280;34202;52.536;6.042;2022-11-24T06:51:58;100660.86;;;6.85;100.00
48404;BME280;34202;52.536;6.042;2022-11-24T06:56:59;100663.68;;;6.88;100.00
48404;BME280;34202;52.536;6.042;2022-11-24T07:01:59;100672.73;;;6.91;100.00
48404;BME280;34202;52.536;6.042;2022-11-24T07:07:01;100686.80;;;6.93;100.00
48404;BME280;34202;52.536;6.042;2022-11-24T07:12:02;100701.17;;;6.94;100.00
48404;BME280;34202;52.536;6.042;2022-11-24T07:17:02;100715.56;;;6.95;100.00
48404;BME280;34202;52.536;6.042;2022-11-24T07:22:03;100731.48;;;6.95;100.00
48404;BME280;34202;52.536;6.042;2022-11-24T07:27:04;100735.97;;;6.94;100.00
48404;BME280;34202;52.536;6.042;2022-11-24T07:32:04;100745.79;;;6.93;100.00
48404;BME280;34202;52.536;6.042;2022-11-24T07:37:04;100751.27;;;6.90;100.00
48404;BME280;34202;52.536;6.042;2022-11-24T07:42:05;100754.16;;;6.88;100.00
48404;BME280;34202;52.536;6.042;2022-11-24T07:47:07;100758.44;;;6.85;100.00
48404;BME280;34202;52.536;6.042;2022-11-24T07:52:07;100763.72;;;6.81;100.00
48404;BME280;34202;52.536;6.042;2022-11-24T07:57:08;100770.58;;;6.78;100.00
48404;BME280;34202;52.536;6.042;2022-11-24T08:02:11;100775.87;;;6.75;100.00
48404;BME280;34202;52.536;6.042;2022-11-24T08:07:11;100791.36;;;6.72;100.00
48404;BME280;34202;52.536;6.042;2022-11-24T08:12:12;100798.90;;;6.69;100.00
48404;BME280;34202;52.536;6.042;2022-11-24T08:17:12;100809.73;;;6.66;100.00
48404;BME280;34202;52.536;6.042;2022-11-24T08:22:12;100818.52;;;6.64;100.00
48404;BME280;34202;52.536;6.042;2022-11-24T08:27:14;100828.92;;;6.65;100.00
48404;BME280;34202;52.536;6.042;2022-11-24T08:32:14;100834.02;;;6.69;100.00
48404;BME280;34202;52.536;6.042;2022-11-24T08:37:15;100833.94;;;6.72;100.00
48404;BME280;34202;52.536;6.042;2022-11-24T08:42:15;100836.33;;;6.79;100.00
48404;BME280;34202;52.536;6.042;2022-11-24T08:47:15;100842.54;;;6.86;100.00
48404;BME280;34202;52.536;6.042;2022-11-24T08:52:16;100846.31;;;6.93;100.00
48404;BME280;34202;52.536;6.042;2022-11-24T08:57:16;100865.86;;;7.01;100.00
48404;BME280;34202;52.536;6.042;2022-11-24T09:02:16;100870.84;;;7.07;100.00
48404;BME280;34202;52.536;6.042;2022-11-24T09:07:17;100873.73;;;7.13;100.00
48404;BME280;34202;52.536;6.042;2022-11-24T09:12:17;100868.48;;;7.18;100.00
48404;BME280;34202;52.536;6.042;2022-11-24T09:17:17;100870.81;;;7.22;100.00
48404;BME280;34202;52.536;6.042;2022-11-24T09:22:18;100876.95;;;7.26;100.00
48404;BME280;34202;52.536;6.042;2022-11-24T09:27:18;100886.55;;;7.30;100.00
48404;BME280;34202;52.536;6.042;2022-11-24T09:32:18;100897.76;;;7.36;100.00
48404;BME280;34202;52.536;6.042;2022-11-24T09:37:19;100909.65;;;7.41;100.00
48404;BME280;34202;52.536;6.042;2022-11-24T09:42:33;100914.48;;;7.49;100.00
48404;BME280;34202;52.536;6.042;2022-11-24T09:47:58;100912.02;;;7.56;100.00
48404;BME280;34202;52.536;6.042;2022-11-24T09:58:56;100939.17;;;7.71;100.00
48404;BME280;34202;52.536;6.042;2022-11-24T10:03:59;100950.27;;;7.81;100.00
48404;BME280;34202;52.536;6.042;2022-11-24T10:19:53;100966.55;;;8.07;100.00
48404;BME280;34202;52.536;6.042;2022-11-24T10:30:20;100979.38;;;8.26;100.00
48404;BME280;34202;52.536;6.042;2022-11-24T10:35:26;100979.02;;;8.34;100.00
48404;BME280;34202;52.536;6.042;2022-11-24T10:40:35;100981.63;;;8.43;100.00
48404;BME280;34202;52.536;6.042;2022-11-24T10:45:38;100988.05;;;8.53;100.00
48404;BME280;34202;52.536;6.042;2022-11-24T10:50:40;100988.01;;;8.60;100.00
48404;BME280;34202;52.536;6.042;2022-11-24T11:06:14;101008.89;;;8.85;100.00
48404;BME280;34202;52.536;6.042;2022-11-24T11:11:26;101011.95;;;8.91;100.00
48404;BME280;34202;52.536;6.042;2022-11-24T11:21:37;101022.08;;;9.06;100.00
48404;BME280;34202;52.536;6.042;2022-11-24T11:26:38;101025.48;;;9.13;100.00
48404;BME280;34202;52.536;6.042;2022-11-24T11:31:41;101026.32;;;9.22;100.00
48404;BME280;34202;52.536;6.042;2022-11-24T11:36:47;101025.21;;;9.30;100.00
48404;BME280;34202;52.536;6.042;2022-11-24T11:41:51;101032.43;;;9.36;100.00
48404;BME280;34202;52.536;6.042;2022-11-24T11:46:57;101033.02;;;9.41;100.00
48404;BME280;34202;52.536;6.042;2022-11-24T11:52:28;101035.52;;;9.45;100.00
48404;BME280;34202;52.536;6.042;2022-11-24T12:14:06;101046.16;;;9.61;100.00
48404;BME280;34202;52.536;6.042;2022-11-24T12:19:30;101050.38;;;9.64;100.00
48404;BME280;34202;52.536;6.042;2022-11-24T12:30:01;101055.06;;;9.76;100.00
48404;BME280;34202;52.536;6.042;2022-11-24T12:35:27;101050.79;;;9.81;100.00
48404;BME280;34202;52.536;6.042;2022-11-24T12:46:00;101046.30;;;9.84;100.00
48404;BME280;34202;52.536;6.042;2022-11-24T12:51:06;101051.33;;;9.83;100.00
48404;BME280;34202;52.536;6.042;2022-11-24T12:56:12;101057.23;;;9.82;100.00
48404;BME280;34202;52.536;6.042;2022-11-24T13:06:33;101066.42;;;9.80;100.00
48404;BME280;34202;52.536;6.042;2022-11-24T13:11:40;101069.02;;;9.80;100.00
48404;BME280;34202;52.536;6.042;2022-11-24T13:22:24;101067.98;;;9.79;100.00
48404;BME280;34202;52.536;6.042;2022-11-24T13:27:26;101065.36;;;9.79;100.00
48404;BME280;34202;52.536;6.042;2022-11-24T13:32:44;101067.09;;;9.78;100.00
48404;BME280;34202;52.536;6.042;2022-11-24T13:37:46;101066.73;;;9.77;100.00
48404;BME280;34202;52.536;6.042;2022-11-24T13:47:53;101069.46;;;9.74;100.00
48404;BME280;34202;52.536;6.042;2022-11-24T13:52:57;101069.80;;;9.74;100.00
48404;BME280;34202;52.536;6.042;2022-11-24T13:58:28;101081.63;;;9.74;100.00
48404;BME280;34202;52.536;6.042;2022-11-24T14:03:31;101090.65;;;9.72;100.00
48404;BME280;34202;52.536;6.042;2022-11-24T14:08:35;101089.05;;;9.71;100.00
48404;BME280;34202;52.536;6.042;2022-11-24T14:13:36;101084.16;;;9.69;100.00
48404;BME280;34202;52.536;6.042;2022-11-24T14:18:38;101086.75;;;9.68;100.00
48404;BME280;34202;52.536;6.042;2022-11-24T14:23:53;101085.14;;;9.65;100.00
48404;BME280;34202;52.536;6.042;2022-11-24T14:29:02;101078.85;;;9.62;100.00
48404;BME280;34202;52.536;6.042;2022-11-24T14:34:14;101076.52;;;9.57;100.00
48404;BME280;34202;52.536;6.042;2022-11-24T14:39:17;101077.84;;;9.53;100.00
48404;BME280;34202;52.536;6.042;2022-11-24T14:44:23;101084.36;;;9.48;100.00
48404;BME280;34202;52.536;6.042;2022-11-24T14:49:24;101087.96;;;9.43;100.00
48404;BME280;34202;52.536;6.042;2022-11-24T14:54:25;101095.86;;;9.38;100.00
48404;BME280;34202;52.536;6.042;2022-11-24T14:59:28;101092.12;;;9.32;100.00
48404;BME280;34202;52.536;6.042;2022-11-24T15:04:30;101093.21;;;9.24;100.00
48404;BME280;34202;52.536;6.042;2022-11-24T15:09:48;101093.98;;;9.17;100.00
48404;BME280;34202;52.536;6.042;2022-11-24T15:14:51;101101.33;;;9.10;100.00
48404;BME280;34202;52.536;6.042;2022-11-24T15:19:57;101103.44;;;9.02;100.00
48404;BME280;34202;52.536;6.042;2022-11-24T15:24:59;101097.07;;;8.95;100.00
48404;BME280;34202;52.536;6.042;2022-11-24T15:30:00;101105.14;;;8.90;100.00
48404;BME280;34202;52.536;6.042;2022-11-24T15:35:00;101098.10;;;8.84;100.00
48404;BME280;34202;52.536;6.042;2022-11-24T15:40:00;101101.06;;;8.76;100.00
48404;BME280;34202;52.536;6.042;2022-11-24T15:45:01;101107.20;;;8.70;100.00
48404;BME280;34202;52.536;6.042;2022-11-24T15:50:02;101115.27;;;8.65;100.00
48404;BME280;34202;52.536;6.042;2022-11-24T15:55:03;101122.27;;;8.59;100.00
48404;BME280;34202;52.536;6.042;2022-11-24T16:00:04;101121.59;;;8.51;100.00
48404;BME280;34202;52.536;6.042;2022-11-24T16:05:05;101127.86;;;8.44;100.00
48404;BME280;34202;52.536;6.042;2022-11-24T16:10:11;101125.11;;;8.37;100.00
48404;BME280;34202;52.536;6.042;2022-11-24T16:15:14;101124.58;;;8.29;100.00
48404;BME280;34202;52.536;6.042;2022-11-24T16:20:14;101123.71;;;8.21;100.00
48404;BME280;34202;52.536;6.042;2022-11-24T16:25:15;101128.74;;;8.12;100.00
48404;BME280;34202;52.536;6.042;2022-11-24T16:30:15;101127.92;;;8.07;100.00
48404;BME280;34202;52.536;6.042;2022-11-24T16:35:15;101124.17;;;8.01;100.00
48404;BME280;34202;52.536;6.042;2022-11-24T16:40:16;101121.09;;;7.96;100.00
48404;BME280;34202;52.536;6.042;2022-11-24T16:45:17;101117.70;;;7.91;100.00
48404;BME280;34202;52.536;6.042;2022-11-24T16:50:17;101118.63;;;7.85;100.00
48404;BME280;34202;52.536;6.042;2022-11-24T16:55:18;101123.71;;;7.81;100.00
48404;BME280;34202;52.536;6.042;2022-11-24T17:00:18;101122.23;;;7.76;100.00
48404;BME280;34202;52.536;6.042;2022-11-24T17:05:18;101119.71;;;7.72;100.00
48404;BME280;34202;52.536;6.042;2022-11-24T17:10:19;101122.04;;;7.68;100.00
48404;BME280;34202;52.536;6.042;2022-11-24T17:15:19;101124.20;;;7.64;100.00
48404;BME280;34202;52.536;6.042;2022-11-24T17:20:19;101125.14;;;7.60;100.00
48404;BME280;34202;52.536;6.042;2022-11-24T17:25:20;101124.72;;;7.56;100.00
48404;BME280;34202;52.536;6.042;2022-11-24T17:30:20;101130.68;;;7.52;100.00
48404;BME280;34202;52.536;6.042;2022-11-24T17:35:20;101136.66;;;7.49;100.00
48404;BME280;34202;52.536;6.042;2022-11-24T17:40:21;101137.11;;;7.46;100.00
48404;BME280;34202;52.536;6.042;2022-11-24T17:45:21;101136.67;;;7.42;100.00
48404;BME280;34202;52.536;6.042;2022-11-24T17:50:22;101141.61;;;7.39;100.00
48404;BME280;34202;52.536;6.042;2022-11-24T17:55:22;101141.02;;;7.35;100.00
48404;BME280;34202;52.536;6.042;2022-11-24T18:00:22;101135.93;;;7.32;100.00
48404;BME280;34202;52.536;6.042;2022-11-24T18:05:23;101136.72;;;7.29;100.00
48404;BME280;34202;52.536;6.042;2022-11-24T18:10:23;101140.46;;;7.27;100.00
48404;BME280;34202;52.536;6.042;2022-11-24T18:15:23;101143.89;;;7.25;100.00
48404;BME280;34202;52.536;6.042;2022-11-24T18:20:24;101141.59;;;7.24;100.00
48404;BME280;34202;52.536;6.042;2022-11-24T18:25:26;101140.87;;;7.22;100.00
48404;BME280;34202;52.536;6.042;2022-11-24T18:30:26;101141.89;;;7.22;100.00
48404;BME280;34202;52.536;6.042;2022-11-24T18:35:26;101138.58;;;7.22;100.00
48404;BME280;34202;52.536;6.042;2022-11-24T18:40:27;101138.94;;;7.22;100.00
48404;BME280;34202;52.536;6.042;2022-11-24T18:45:27;101139.33;;;7.23;100.00
48404;BME280;34202;52.536;6.042;2022-11-24T18:50:27;101138.14;;;7.24;100.00
48404;BME280;34202;52.536;6.042;2022-11-24T18:55:28;101143.16;;;7.24;100.00
48404;BME280;34202;52.536;6.042;2022-11-24T19:00:28;101139.85;;;7.23;100.00
48404;BME280;34202;52.536;6.042;2022-11-24T19:05:28;101144.28;;;7.21;100.00
48404;BME280;34202;52.536;6.042;2022-11-24T19:10:29;101147.22;;;7.20;100.00
48404;BME280;34202;52.536;6.042;2022-11-24T19:15:33;101143.36;;;7.18;100.00
48404;BME280;34202;52.536;6.042;2022-11-24T19:20:33;101141.73;;;7.15;100.00
48404;BME280;34202;52.536;6.042;2022-11-24T19:25:34;101134.41;;;7.13;100.00
48404;BME280;34202;52.536;6.042;2022-11-24T19:30:34;101125.38;;;7.12;100.00
48404;BME280;34202;52.536;6.042;2022-11-24T19:35:35;101121.90;;;7.11;100.00
48404;BME280;34202;52.536;6.042;2022-11-24T19:40:35;101115.30;;;7.11;100.00
48404;BME280;34202;52.536;6.042;2022-11-24T19:45:35;101109.89;;;7.09;100.00
48404;BME280;34202;52.536;6.042;2022-11-24T19:50:36;101110.04;;;7.08;100.00
48404;BME280;34202;52.536;6.042;2022-11-24T19:55:36;101108.30;;;7.07;100.00
48404;BME280;34202;52.536;6.042;2022-11-24T20:00:36;101102.90;;;7.06;100.00
48404;BME280;34202;52.536;6.042;2022-11-24T20:05:36;101106.30;;;7.04;100.00
48404;BME280;34202;52.536;6.042;2022-11-24T20:10:37;101110.56;;;7.01;100.00
48404;BME280;34202;52.536;6.042;2022-11-24T20:15:41;101108.63;;;7.00;100.00
48404;BME280;34202;52.536;6.042;2022-11-24T20:20:41;101109.98;;;6.99;100.00
48404;BME280;34202;52.536;6.042;2022-11-24T20:25:42;101110.28;;;6.97;100.00
48404;BME280;34202;52.536;6.042;2022-11-24T20:30:42;101113.21;;;6.96;100.00
48404;BME280;34202;52.536;6.042;2022-11-24T20:35:42;101111.27;;;6.95;100.00
48404;BME280;34202;52.536;6.042;2022-11-24T20:40:42;101107.63;;;6.94;100.00
48404;BME280;34202;52.536;6.042;2022-11-24T20:45:43;101111.05;;;6.94;100.00
48404;BME280;34202;52.536;6.042;2022-11-24T20:50:43;101108.43;;;6.93;100.00
48404;BME280;34202;52.536;6.042;2022-11-24T20:55:44;101110.00;;;6.92;100.00
48404;BME280;34202;52.536;6.042;2022-11-24T21:00:44;101111.04;;;6.92;100.00
48404;BME280;34202;52.536;6.042;2022-11-24T21:05:44;101108.91;;;6.91;100.00
48404;BME280;34202;52.536;6.042;2022-11-24T21:10:51;101110.96;;;6.90;100.00
48404;BME280;34202;52.536;6.042;2022-11-24T21:15:53;101106.57;;;6.87;100.00
48404;BME280;34202;52.536;6.042;2022-11-24T21:20:53;101107.03;;;6.85;100.00
48404;BME280;34202;52.536;6.042;2022-11-24T21:26:00;101108.88;;;6.83;100.00
48404;BME280;34202;52.536;6.042;2022-11-24T21:31:06;101107.98;;;6.82;100.00
48404;BME280;34202;52.536;6.042;2022-11-24T21:36:06;101102.11;;;6.83;100.00
48404;BME280;34202;52.536;6.042;2022-11-24T21:41:08;101100.92;;;6.83;100.00
48404;BME280;34202;52.536;6.042;2022-11-24T21:46:10;101104.11;;;6.86;100.00
48404;BME280;34202;52.536;6.042;2022-11-24T21:51:13;101102.63;;;6.89;100.00
48404;BME280;34202;52.536;6.042;2022-11-24T21:56:19;101092.50;;;6.92;100.00
48404;BME280;34202;52.536;6.042;2022-11-24T22:01:21;101086.36;;;6.95;100.00
48404;BME280;34202;52.536;6.042;2022-11-24T22:06:21;101080.02;;;6.98;100.00
48404;BME280;34202;52.536;6.042;2022-11-24T22:11:24;101075.91;;;7.00;100.00
48404;BME280;34202;52.536;6.042;2022-11-24T22:16:24;101077.35;;;7.02;100.00
48404;BME280;34202;52.536;6.042;2022-11-24T22:21:25;101073.76;;;7.04;100.00
48404;BME280;34202;52.536;6.042;2022-11-24T22:26:32;101072.80;;;7.06;100.00
48404;BME280;34202;52.536;6.042;2022-11-24T22:31:32;101069.59;;;7.10;100.00
48404;BME280;34202;52.536;6.042;2022-11-24T22:36:32;101066.05;;;7.14;100.00
48404;BME280;34202;52.536;6.042;2022-11-24T22:41:35;101064.95;;;7.19;100.00
48404;BME280;34202;52.536;6.042;2022-11-24T22:46:35;101054.61;;;7.21;100.00
48404;BME280;34202;52.536;6.042;2022-11-24T22:51:37;101051.55;;;7.23;100.00
48404;BME280;34202;52.536;6.042;2022-11-24T22:56:38;101051.23;;;7.24;100.00
48404;BME280;34202;52.536;6.042;2022-11-24T23:01:38;101051.41;;;7.24;100.00
48404;BME280;34202;52.536;6.042;2022-11-24T23:06:39;101050.16;;;7.23;100.00
48404;BME280;34202;52.536;6.042;2022-11-24T23:11:39;101052.05;;;7.22;100.00
48404;BME280;34202;52.536;6.042;2022-11-24T23:16:40;101053.30;;;7.24;100.00
48404;BME280;34202;52.536;6.042;2022-11-24T23:21:41;101055.63;;;7.27;100.00
48404;BME280;34202;52.536;6.042;2022-11-24T23:26:41;101059.65;;;7.29;100.00
48404;BME280;34202;52.536;6.042;2022-11-24T23:31:41;101057.13;;;7.32;100.00
48404;BME280;34202;52.536;6.042;2022-11-24T23:36:42;101052.65;;;7.32;100.00
48404;BME280;34202;52.536;6.042;2022-11-24T23:41:42;101055.66;;;7.36;100.00
48404;BME280;34202;52.536;6.042;2022-11-24T23:46:42;101051.40;;;7.39;100.00
48404;BME280;34202;52.536;6.042;2022-11-24T23:51:43;101056.84;;;7.42;100.00
48404;BME280;34202;52.536;6.042;2022-11-24T23:56:43;101047.72;;;7.44;100.00
